sensor_id;sensor_type;location;lat;lon;timestamp;pressure;altitude;pressure_sealevel;temperature;humidity
17072;BME280;7731;50.720;6.912;2023-02-20T00:01:04;101146.75;;;4.72;100.00
17072;BME280;7731;50.720;6.912;2023-02-20T00:03:34;101143.38;;;4.72;100.00
17072;BME280;7731;50.720;6.912;2023-02-20T00:06:07;101145.97;;;4.65;100.00
17072;BME280;7731;50.720;6.912;2023-02-20T00:08:41;101141.72;;;4.66;100.00
17072;BME280;7731;50.720;6.912;2023-02-20T00:11:11;101142.50;;;4.71;100.00
17072;BME280;7731;50.720;6.912;2023-02-20T00:13:45;101137.59;;;4.50;100.00
17072;BME280;7731;50.720;6.912;2023-02-20T00:16:20;101130.09;;;4.34;100.00
17072;BME280;7731;50.720;6.912;2023-02-20T00:18:50;101131.75;;;4.41;100.00
17072;BME280;7731;50.720;6.912;2023-02-20T00:21:20;101123.34;;;4.33;100.00
17072;BME280;7731;50.720;6.912;2023-02-20T00:23:50;101125.06;;;4.25;100.00
17072;BME280;7731;50.720;6.912;2023-02-20T00:26:20;101125.13;;;4.19;100.00
17072;BME280;7731;50.720;6.912;2023-02-20T00:28:51;101122.66;;;4.09;100.00
17072;BME280;7731;50.720;6.912;2023-02-20T00:31:23;101120.06;;;4.16;100.00
17072;BME280;7731;50.720;6.912;2023-02-20T00:33:53;101124.19;;;4.31;100.00
17072;BME280;7731;50.720;6.912;2023-02-20T00:36:24;101119.16;;;4.23;100.00
17072;BME280;7731;50.720;6.912;2023-02-20T00:38:54;101113.16;;;4.33;100.00
17072;BME280;7731;50.720;6.912;2023-02-20T00:41:24;101114.75;;;4.43;100.00
17072;BME280;7731;50.720;6.912;2023-02-20T00:43:54;101103.00;;;4.30;100.00
17072;BME280;7731;50.720;6.912;2023-02-20T00:46:27;101092.88;;;4.21;100.00
17072;BME280;7731;50.720;6.912;2023-02-20T00:48:57;101096.34;;;4.14;100.00
17072;BME280;7731;50.720;6.912;2023-02-20T00:51:27;101095.44;;;4.21;100.00
17072;BME280;7731;50.720;6.912;2023-02-20T00:53:59;101097.94;;;4.27;100.00
17072;BME280;7731;50.720;6.912;2023-02-20T00:56:29;101095.47;;;4.16;100.00
17072;BME280;7731;50.720;6.912;2023-02-20T00:58:59;101096.25;;;4.26;100.00
17072;BME280;7731;50.720;6.912;2023-02-20T01:01:33;101092.88;;;4.21;100.00
17072;BME280;7731;50.720;6.912;2023-02-20T01:04:03;101096.34;;;4.14;100.00
17072;BME280;7731;50.720;6.912;2023-02-20T01:06:33;101083.63;;;4.15;100.00
17072;BME280;7731;50.720;6.912;2023-02-20T01:09:03;101098.00;;;4.15;100.00
17072;BME280;7731;50.720;6.912;2023-02-20T01:11:40;101086.97;;;4.17;100.00
17072;BME280;7731;50.720;6.912;2023-02-20T01:14:11;101084.31;;;4.34;100.00
17072;BME280;7731;50.720;6.912;2023-02-20T01:16:50;101082.72;;;4.18;100.00
17072;BME280;7731;50.720;6.912;2023-02-20T01:19:23;101086.19;;;4.14;100.00
17072;BME280;7731;50.720;6.912;2023-02-20T01:21:56;101085.34;;;4.10;100.00
17072;BME280;7731;50.720;6.912;2023-02-20T01:24:29;101090.44;;;4.05;100.00
17072;BME280;7731;50.720;6.912;2023-02-20T01:26:59;101092.06;;;4.19;100.00
17072;BME280;7731;50.720;6.912;2023-02-20T01:29:29;101082.88;;;3.99;100.00
17072;BME280;7731;50.720;6.912;2023-02-20T01:32:03;101079.38;;;4.16;100.00
17072;BME280;7731;50.720;6.912;2023-02-20T01:34:33;101070.03;;;4.15;100.00
17072;BME280;7731;50.720;6.912;2023-02-20T01:37:03;101065.72;;;4.27;100.00
17072;BME280;7731;50.720;6.912;2023-02-20T01:39:33;101064.03;;;4.23;100.00
17072;BME280;7731;50.720;6.912;2023-02-20T01:42:08;101068.91;;;4.50;100.00
17072;BME280;7731;50.720;6.912;2023-02-20T01:44:44;101060.59;;;4.32;100.00
17072;BME280;7731;50.720;6.912;2023-02-20T01:47:20;101071.47;;;4.46;100.00
17072;BME280;7731;50.720;6.912;2023-02-20T01:49:55;101067.25;;;4.45;100.00
17072;BME280;7731;50.720;6.912;2023-02-20T01:52:32;101066.44;;;4.40;100.00
17072;BME280;7731;50.720;6.912;2023-02-20T01:55:10;101058.06;;;4.31;100.00
17072;BME280;7731;50.720;6.912;2023-02-20T01:57:50;101065.63;;;4.37;100.00
17072;BME280;7731;50.720;6.912;2023-02-20T02:00:25;101047.06;;;4.27;100.00
17072;BME280;7731;50.720;6.912;2023-02-20T02:03:06;101052.00;;;4.45;100.00
17072;BME280;7731;50.720;6.912;2023-02-20T02:05:42;101046.69;;;4.67;100.00
17072;BME280;7731;50.720;6.912;2023-02-20T02:08:17;101045.06;;;4.60;100.00
17072;BME280;7731;50.720;6.912;2023-02-20T02:10:57;101050.22;;;4.54;100.00
17072;BME280;7731;50.720;6.912;2023-02-20T02:13:31;101034.88;;;4.60;100.00
17072;BME280;7731;50.720;6.912;2023-02-20T02:16:15;101024.44;;;4.85;100.00
17072;BME280;7731;50.720;6.912;2023-02-20T02:18:58;101024.69;;;4.61;100.00
17072;BME280;7731;50.720;6.912;2023-02-20T02:22:30;101012.72;;;4.68;100.00
17072;BME280;7731;50.720;6.912;2023-02-20T02:25:31;101017.78;;;4.71;100.00
17072;BME280;7731;50.720;6.912;2023-02-20T02:32:08;101016.25;;;4.58;100.00
17072;BME280;7731;50.720;6.912;2023-02-20T02:35:23;101011.28;;;4.45;100.00
17072;BME280;7731;50.720;6.912;2023-02-20T02:38:11;101007.00;;;4.47;100.00
17072;BME280;7731;50.720;6.912;2023-02-20T02:40:53;101002.78;;;4.46;100.00
17072;BME280;7731;50.720;6.912;2023-02-20T02:43:36;101002.78;;;4.46;100.00
17072;BME280;7731;50.720;6.912;2023-02-20T02:46:19;101003.84;;;4.27;100.00
17072;BME280;7731;50.720;6.912;2023-02-20T02:48:58;101000.47;;;4.22;100.00
17072;BME280;7731;50.720;6.912;2023-02-20T02:51:37;101006.50;;;4.08;100.00
17072;BME280;7731;50.720;6.912;2023-02-20T02:54:17;101003.97;;;4.10;100.00
17072;BME280;7731;50.720;6.912;2023-02-20T02:56:50;101006.53;;;4.05;100.00
17072;BME280;7731;50.720;6.912;2023-02-20T02:59:27;100998.19;;;3.92;100.00
17072;BME280;7731;50.720;6.912;2023-02-20T03:02:04;100999.88;;;3.95;100.00
17072;BME280;7731;50.720;6.912;2023-02-20T03:04:43;100991.34;;;3.99;100.00
17072;BME280;7731;50.720;6.912;2023-02-20T03:07:18;100984.66;;;3.89;100.00
17072;BME280;7731;50.720;6.912;2023-02-20T03:09:58;100982.97;;;3.88;100.00
17072;BME280;7731;50.720;6.912;2023-02-20T03:12:33;100973.47;;;4.05;100.00
17072;BME280;7731;50.720;6.912;2023-02-20T03:15:11;100974.25;;;4.17;100.00
17072;BME280;7731;50.720;6.912;2023-02-20T03:18:11;100960.03;;;3.96;100.00
17072;BME280;7731;50.720;6.912;2023-02-20T03:20:55;100965.06;;;4.02;100.00
17072;BME280;7731;50.720;6.912;2023-02-20T03:23:31;100956.63;;;3.98;100.00
17072;BME280;7731;50.720;6.912;2023-02-20T03:26:09;100954.88;;;4.03;100.00
17072;BME280;7731;50.720;6.912;2023-02-20T03:28:50;100950.66;;;3.99;100.00
17072;BME280;7731;50.720;6.912;2023-02-20T03:31:29;100944.66;;;4.08;100.00
17072;BME280;7731;50.720;6.912;2023-02-20T03:34:08;100937.06;;;4.05;100.00
17072;BME280;7731;50.720;6.912;2023-02-20T03:36:59;100941.38;;;3.98;100.00
17072;BME280;7731;50.720;6.912;2023-02-20T03:39:48;100942.09;;;4.09;100.00
17072;BME280;7731;50.720;6.912;2023-02-20T03:42:39;100927.56;;;4.22;100.00
17072;BME280;7731;50.720;6.912;2023-02-20T03:45:27;100929.88;;;4.45;100.00
17072;BME280;7731;50.720;6.912;2023-02-20T03:48:05;100935.84;;;4.40;100.00
17072;BME280;7731;50.720;6.912;2023-02-20T03:50:37;100941.78;;;4.39;100.00
17072;BME280;7731;50.720;6.912;2023-02-20T03:53:20;100935.19;;;4.21;100.00
17072;BME280;7731;50.720;6.912;2023-02-20T03:55:53;100936.31;;;3.95;100.00
17072;BME280;7731;50.720;6.912;2023-02-20T03:58:36;100932.22;;;3.79;100.00
17072;BME280;7731;50.720;6.912;2023-02-20T04:01:10;100934.84;;;3.68;100.00
17072;BME280;7731;50.720;6.912;2023-02-20T04:03:48;100924.69;;;3.66;100.00
17072;BME280;7731;50.720;6.912;2023-02-20T04:06:33;100923.75;;;3.80;100.00
17072;BME280;7731;50.720;6.912;2023-02-20T04:09:11;100921.94;;;3.91;100.00
17072;BME280;7731;50.720;6.912;2023-02-20T04:11:48;100925.41;;;3.81;100.00
17072;BME280;7731;50.720;6.912;2023-02-20T04:14:24;100924.50;;;3.86;100.00
17072;BME280;7731;50.720;6.912;2023-02-20T04:17:04;100920.19;;;3.96;100.00
17072;BME280;7731;50.720;6.912;2023-02-20T04:19:37;100929.69;;;3.77;100.00
17072;BME280;7731;50.720;6.912;2023-02-20T04:22:16;100934.13;;;3.52;100.00
17072;BME280;7731;50.720;6.912;2023-02-20T04:24:54;100925.69;;;3.47;100.00
17072;BME280;7731;50.720;6.912;2023-02-20T04:27:26;100914.59;;;3.58;100.00
17072;BME280;7731;50.720;6.912;2023-02-20T04:29:59;100910.06;;;3.90;100.00
17072;BME280;7731;50.720;6.912;2023-02-20T04:32:32;100919.09;;;4.20;100.00
17072;BME280;7731;50.720;6.912;2023-02-20T04:35:02;100921.59;;;4.25;100.00
17072;BME280;7731;50.720;6.912;2023-02-20T04:37:33;100917.38;;;4.21;100.00
17072;BME280;7731;50.720;6.912;2023-02-20T04:40:04;100912.31;;;4.21;100.00
17072;BME280;7731;50.720;6.912;2023-02-20T04:42:34;100918.25;;;4.21;100.00
17072;BME280;7731;50.720;6.912;2023-02-20T04:45:08;100913.34;;;4.04;100.00
17072;BME280;7731;50.720;6.912;2023-02-20T04:47:38;100914.19;;;4.03;100.00
17072;BME280;7731;50.720;6.912;2023-02-20T04:50:09;100909.94;;;4.02;100.00
17072;BME280;7731;50.720;6.912;2023-02-20T04:52:40;100905.75;;;4.01;100.00
17072;BME280;7731;50.720;6.912;2023-02-20T04:55:16;100908.34;;;3.95;100.00
17072;BME280;7731;50.720;6.912;2023-02-20T04:57:46;100909.91;;;4.05;100.00
17072;BME280;7731;50.720;6.912;2023-02-20T05:00:19;100906.69;;;3.91;100.00
17072;BME280;7731;50.720;6.912;2023-02-20T05:02:50;100912.59;;;3.91;100.00
17072;BME280;7731;50.720;6.912;2023-02-20T05:05:24;100922.72;;;3.94;100.00
17072;BME280;7731;50.720;6.912;2023-02-20T05:07:56;100915.97;;;3.93;100.00
17072;BME280;7731;50.720;6.912;2023-02-20T05:10:28;100921.88;;;3.97;100.00
17072;BME280;7731;50.720;6.912;2023-02-20T05:13:04;100915.13;;;3.93;100.00
17072;BME280;7731;50.720;6.912;2023-02-20T05:15:37;100922.69;;;3.99;100.00
17072;BME280;7731;50.720;6.912;2023-02-20T05:18:07;100917.59;;;4.01;100.00
17072;BME280;7731;50.720;6.912;2023-02-20T05:20:40;100918.50;;;3.95;100.00
17072;BME280;7731;50.720;6.912;2023-02-20T05:23:23;100916.06;;;3.84;100.00
17072;BME280;7731;50.720;6.912;2023-02-20T05:25:53;100908.47;;;3.83;100.00
17072;BME280;7731;50.720;6.912;2023-02-20T05:28:23;100911.81;;;3.85;100.00
17072;BME280;7731;50.720;6.912;2023-02-20T05:31:01;100915.13;;;3.93;100.00
17072;BME280;7731;50.720;6.912;2023-02-20T05:33:33;100905.78;;;3.97;100.00
17072;BME280;7731;50.720;6.912;2023-02-20T05:36:05;100899.75;;;4.05;100.00
17072;BME280;7731;50.720;6.912;2023-02-20T05:38:36;100886.94;;;4.13;100.00
17072;BME280;7731;50.720;6.912;2023-02-20T05:41:07;100885.41;;;4.01;100.00
17072;BME280;7731;50.720;6.912;2023-02-20T05:43:40;100881.06;;;4.09;100.00
17072;BME280;7731;50.720;6.912;2023-02-20T05:46:13;100884.50;;;4.05;100.00
17072;BME280;7731;50.720;6.912;2023-02-20T05:48:47;100876.88;;;4.05;100.00
17072;BME280;7731;50.720;6.912;2023-02-20T05:51:23;100872.66;;;4.04;100.00
17072;BME280;7731;50.720;6.912;2023-02-20T05:53:54;100875.31;;;3.92;100.00
17072;BME280;7731;50.720;6.912;2023-02-20T05:56:27;100872.78;;;3.92;100.00
17072;BME280;7731;50.720;6.912;2023-02-20T05:59:02;100868.47;;;3.99;100.00
17072;BME280;7731;50.720;6.912;2023-02-20T06:01:35;100876.94;;;3.98;100.00
17072;BME280;7731;50.720;6.912;2023-02-20T06:04:09;100869.28;;;4.02;100.00
17072;BME280;7731;50.720;6.912;2023-02-20T06:06:41;100867.59;;;4.03;100.00
17072;BME280;7731;50.720;6.912;2023-02-20T06:09:12;100874.34;;;4.02;100.00
17072;BME280;7731;50.720;6.912;2023-02-20T06:11:51;100870.88;;;4.11;100.00
17072;BME280;7731;50.720;6.912;2023-02-20T06:14:25;100871.78;;;4.05;100.00
17072;BME280;7731;50.720;6.912;2023-02-20T06:16:58;100866.72;;;4.02;100.00
17072;BME280;7731;50.720;6.912;2023-02-20T06:19:28;100872.59;;;4.10;100.00
17072;BME280;7731;50.720;6.912;2023-02-20T06:21:59;100872.59;;;4.10;100.00
17072;BME280;7731;50.720;6.912;2023-02-20T06:24:29;100871.72;;;4.11;100.00
17072;BME280;7731;50.720;6.912;2023-02-20T06:27:00;100869.94;;;4.20;100.00
17072;BME280;7731;50.720;6.912;2023-02-20T06:29:30;100863.97;;;4.24;100.00
17072;BME280;7731;50.720;6.912;2023-02-20T06:32:03;100864.91;;;4.17;100.00
17072;BME280;7731;50.720;6.912;2023-02-20T06:34:36;100864.00;;;4.18;100.00
17072;BME280;7731;50.720;6.912;2023-02-20T06:37:06;100873.25;;;4.26;100.00
17072;BME280;7731;50.720;6.912;2023-02-20T06:39:37;100870.72;;;4.25;100.00
17072;BME280;7731;50.720;6.912;2023-02-20T06:42:11;100862.06;;;4.41;100.00
17072;BME280;7731;50.720;6.912;2023-02-20T06:44:42;100870.50;;;4.43;100.00
17072;BME280;7731;50.720;6.912;2023-02-20T06:47:15;100868.69;;;4.55;100.00
17072;BME280;7731;50.720;6.912;2023-02-20T06:49:45;100864.34;;;4.61;100.00
17072;BME280;7731;50.720;6.912;2023-02-20T06:52:15;100868.47;;;4.70;100.00
17072;BME280;7731;50.720;6.912;2023-02-20T06:54:45;100863.22;;;4.82;100.00
17072;BME280;7731;50.720;6.912;2023-02-20T06:57:17;100859.00;;;4.80;100.00
17072;BME280;7731;50.720;6.912;2023-02-20T06:59:47;100869.16;;;4.83;100.00
17072;BME280;7731;50.720;6.912;2023-02-20T07:02:20;100869.84;;;4.93;100.00
17072;BME280;7731;50.720;6.912;2023-02-20T07:04:50;100868.09;;;4.98;100.00
17072;BME280;7731;50.720;6.912;2023-02-20T07:07:20;100867.13;;;5.05;100.00
17072;BME280;7731;50.720;6.912;2023-02-20T07:09:51;100857.72;;;5.10;100.00
17072;BME280;7731;50.720;6.912;2023-02-20T07:12:21;100861.09;;;5.12;100.00
17072;BME280;7731;50.720;6.912;2023-02-20T07:14:51;100857.69;;;5.13;100.00
17072;BME280;7731;50.720;6.912;2023-02-20T07:17:24;100859.19;;;5.27;100.00
17072;BME280;7731;50.720;6.912;2023-02-20T07:19:58;100854.09;;;5.27;100.00
17072;BME280;7731;50.720;6.912;2023-02-20T07:22:28;100862.28;;;5.44;100.00
17072;BME280;7731;50.720;6.912;2023-02-20T07:24:58;100861.38;;;5.48;100.00
17072;BME280;7731;50.720;6.912;2023-02-20T07:27:28;100857.00;;;5.55;100.00
17072;BME280;7731;50.720;6.912;2023-02-20T07:29:58;100862.00;;;5.61;100.00
17072;BME280;7731;50.720;6.912;2023-02-20T07:32:31;100860.88;;;5.78;100.00
17072;BME280;7731;50.720;6.912;2023-02-20T07:35:01;100856.28;;;5.97;100.00
17072;BME280;7731;50.720;6.912;2023-02-20T07:37:35;100865.34;;;6.13;100.00
17072;BME280;7731;50.720;6.912;2023-02-20T07:40:07;100869.31;;;6.26;100.00
17072;BME280;7731;50.720;6.912;2023-02-20T07:42:38;100876.44;;;6.11;100.00
17072;BME280;7731;50.720;6.912;2023-02-20T07:45:10;100874.19;;;6.40;100.00
17072;BME280;7731;50.720;6.912;2023-02-20T07:47:43;100868.00;;;6.91;100.00
17072;BME280;7731;50.720;6.912;2023-02-20T07:50:14;100871.47;;;6.87;100.00
17072;BME280;7731;50.720;6.912;2023-02-20T07:52:46;100873.34;;;6.81;100.00
17072;BME280;7731;50.720;6.912;2023-02-20T07:55:17;100876.63;;;7.58;100.00
17072;BME280;7731;50.720;6.912;2023-02-20T07:57:48;100874.13;;;8.52;96.84
17072;BME280;7731;50.720;6.912;2023-02-20T08:00:26;100874.97;;;9.37;89.34
17072;BME280;7731;50.720;6.912;2023-02-20T08:02:59;100876.91;;;9.56;81.35
17072;BME280;7731;50.720;6.912;2023-02-20T08:05:29;100880.03;;;10.14;76.96
17072;BME280;7731;50.720;6.912;2023-02-20T08:08:15;100883.19;;;9.97;77.26
17072;BME280;7731;50.720;6.912;2023-02-20T08:10:50;100877.03;;;10.74;74.25
17072;BME280;7731;50.720;6.912;2023-02-20T08:13:34;100884.31;;;11.07;68.72
17072;BME280;7731;50.720;6.912;2023-02-20T08:16:08;100888.00;;;10.56;71.73
17072;BME280;7731;50.720;6.912;2023-02-20T08:18:41;100889.44;;;11.07;70.69
17072;BME280;7731;50.720;6.912;2023-02-20T08:21:11;100878.53;;;12.06;67.75
17072;BME280;7731;50.720;6.912;2023-02-20T08:23:44;100886.19;;;11.87;65.42
17072;BME280;7731;50.720;6.912;2023-02-20T08:26:14;100890.38;;;11.90;66.00
17072;BME280;7731;50.720;6.912;2023-02-20T08:28:46;100895.13;;;12.39;64.02
17072;BME280;7731;50.720;6.912;2023-02-20T08:31:18;100890.72;;;11.61;63.85
17072;BME280;7731;50.720;6.912;2023-02-20T08:34:01;100896.75;;;11.40;68.72
17072;BME280;7731;50.720;6.912;2023-02-20T08:36:31;100895.34;;;12.34;62.37
17072;BME280;7731;50.720;6.912;2023-02-20T08:39:02;100898.94;;;11.70;64.82
17072;BME280;7731;50.720;6.912;2023-02-20T08:41:40;100888.25;;;11.79;64.84
17072;BME280;7731;50.720;6.912;2023-02-20T08:44:10;100901.44;;;11.08;67.83
17072;BME280;7731;50.720;6.912;2023-02-20T08:46:46;100899.31;;;11.40;67.98
17072;BME280;7731;50.720;6.912;2023-02-20T08:49:20;100898.69;;;10.45;75.53
17072;BME280;7731;50.720;6.912;2023-02-20T08:51:55;100899.66;;;10.41;71.80
17072;BME280;7731;50.720;6.912;2023-02-20T08:54:25;100905.59;;;9.67;79.82
17072;BME280;7731;50.720;6.912;2023-02-20T08:56:55;100905.09;;;9.02;85.32
17072;BME280;7731;50.720;6.912;2023-02-20T08:59:26;100889.94;;;10.72;78.60
17072;BME280;7731;50.720;6.912;2023-02-20T09:02:00;100916.44;;;10.26;80.02
17072;BME280;7731;50.720;6.912;2023-02-20T09:04:36;100915.75;;;9.70;81.75
17072;BME280;7731;50.720;6.912;2023-02-20T09:07:06;100911.72;;;10.62;77.18
17072;BME280;7731;50.720;6.912;2023-02-20T09:09:37;100918.00;;;10.55;78.74
17072;BME280;7731;50.720;6.912;2023-02-20T09:12:08;100924.53;;;10.40;77.52
17072;BME280;7731;50.720;6.912;2023-02-20T09:14:39;100922.97;;;11.28;73.96
17072;BME280;7731;50.720;6.912;2023-02-20T09:17:10;100921.28;;;11.47;73.49
17072;BME280;7731;50.720;6.912;2023-02-20T09:19:46;100919.69;;;11.87;68.01
17072;BME280;7731;50.720;6.912;2023-02-20T09:22:20;100910.28;;;12.65;68.14
17072;BME280;7731;50.720;6.912;2023-02-20T09:24:52;100922.41;;;11.19;71.65
17072;BME280;7731;50.720;6.912;2023-02-20T09:27:23;100916.28;;;12.07;67.65
17072;BME280;7731;50.720;6.912;2023-02-20T09:29:53;100913.88;;;12.99;63.26
17072;BME280;7731;50.720;6.912;2023-02-20T09:32:25;100920.72;;;12.43;65.77
17072;BME280;7731;50.720;6.912;2023-02-20T09:34:58;100924.78;;;12.28;68.44
17072;BME280;7731;50.720;6.912;2023-02-20T09:37:28;100923.97;;;13.75;62.58
17072;BME280;7731;50.720;6.912;2023-02-20T09:39:59;100910.06;;;14.62;58.50
17072;BME280;7731;50.720;6.912;2023-02-20T09:42:39;100919.41;;;13.98;60.72
17072;BME280;7731;50.720;6.912;2023-02-20T09:45:18;100919.06;;;12.61;65.05
17072;BME280;7731;50.720;6.912;2023-02-20T09:48:06;100908.91;;;14.01;61.38
17072;BME280;7731;50.720;6.912;2023-02-20T09:50:53;100916.78;;;14.16;59.36
17072;BME280;7731;50.720;6.912;2023-02-20T09:53:34;100905.47;;;14.34;58.62
17072;BME280;7731;50.720;6.912;2023-02-20T09:56:16;100907.50;;;13.07;64.13
17072;BME280;7731;50.720;6.912;2023-02-20T09:58:55;100911.13;;;12.07;71.35
17072;BME280;7731;50.720;6.912;2023-02-20T10:01:29;100907.19;;;12.38;67.92
17072;BME280;7731;50.720;6.912;2023-02-20T10:04:06;100901.03;;;13.87;63.07
17072;BME280;7731;50.720;6.912;2023-02-20T10:06:43;100890.53;;;14.23;59.72
17072;BME280;7731;50.720;6.912;2023-02-20T10:09:15;100894.19;;;13.86;61.66
17072;BME280;7731;50.720;6.912;2023-02-20T10:12:11;100884.44;;;14.08;59.68
17072;BME280;7731;50.720;6.912;2023-02-20T10:15:09;100884.78;;;13.50;60.60
17072;BME280;7731;50.720;6.912;2023-02-20T10:17:58;100866.34;;;14.08;59.44
17072;BME280;7731;50.720;6.912;2023-02-20T10:20:46;100874.03;;;13.92;60.01
17072;BME280;7731;50.720;6.912;2023-02-20T10:23:37;100873.47;;;14.21;59.22
17072;BME280;7731;50.720;6.912;2023-02-20T10:26:20;100860.84;;;15.85;53.37
17072;BME280;7731;50.720;6.912;2023-02-20T10:28:52;100862.44;;;15.72;52.82
17072;BME280;7731;50.720;6.912;2023-02-20T10:31:34;100859.47;;;17.83;46.37
17072;BME280;7731;50.720;6.912;2023-02-20T10:34:15;100847.03;;;16.55;48.95
17072;BME280;7731;50.720;6.912;2023-02-20T10:36:53;100848.53;;;15.30;53.17
17072;BME280;7731;50.720;6.912;2023-02-20T10:39:31;100847.28;;;14.91;56.22
17072;BME280;7731;50.720;6.912;2023-02-20T10:42:11;100859.03;;;15.71;51.93
17072;BME280;7731;50.720;6.912;2023-02-20T10:44:52;100865.03;;;14.33;55.94
17072;BME280;7731;50.720;6.912;2023-02-20T10:47:33;100876.69;;;13.40;60.55
17072;BME280;7731;50.720;6.912;2023-02-20T10:50:15;100872.47;;;13.72;61.68
17072;BME280;7731;50.720;6.912;2023-02-20T10:52:54;100857.16;;;14.19;59.49
17072;BME280;7731;50.720;6.912;2023-02-20T10:55:38;100857.78;;;17.31;49.16
17072;BME280;7731;50.720;6.912;2023-02-20T10:58:18;100857.09;;;15.00;55.35
17072;BME280;7731;50.720;6.912;2023-02-20T11:00:55;100854.53;;;14.52;58.79
17072;BME280;7731;50.720;6.912;2023-02-20T11:03:38;100856.28;;;14.99;54.69
17072;BME280;7731;50.720;6.912;2023-02-20T11:06:15;100853.25;;;14.11;59.40
17072;BME280;7731;50.720;6.912;2023-02-20T11:08:46;100850.13;;;14.38;57.59
17072;BME280;7731;50.720;6.912;2023-02-20T11:11:28;100839.22;;;15.11;55.40
17072;BME280;7731;50.720;6.912;2023-02-20T11:14:01;100847.44;;;14.40;59.72
17072;BME280;7731;50.720;6.912;2023-02-20T11:16:45;100833.09;;;16.29;52.32
17072;BME280;7731;50.720;6.912;2023-02-20T11:19:22;100845.53;;;15.22;58.07
17072;BME280;7731;50.720;6.912;2023-02-20T11:21:55;100841.03;;;15.84;53.41
17072;BME280;7731;50.720;6.912;2023-02-20T11:24:31;100843.31;;;16.18;53.32
17072;BME280;7731;50.720;6.912;2023-02-20T11:27:10;100838.38;;;15.56;57.01
17072;BME280;7731;50.720;6.912;2023-02-20T11:29:52;100833.19;;;15.56;58.53
17072;BME280;7731;50.720;6.912;2023-02-20T11:32:35;100837.19;;;15.16;60.31
17072;BME280;7731;50.720;6.912;2023-02-20T11:35:34;100837.44;;;14.97;59.85
17072;BME280;7731;50.720;6.912;2023-02-20T11:38:28;100831.56;;;16.12;56.96
17072;BME280;7731;50.720;6.912;2023-02-20T11:41:07;100829.88;;;13.81;64.80
17072;BME280;7731;50.720;6.912;2023-02-20T11:43:44;100817.16;;;14.42;61.94
17072;BME280;7731;50.720;6.912;2023-02-20T11:46:33;100808.72;;;15.16;62.35
17072;BME280;7731;50.720;6.912;2023-02-20T11:49:06;100800.75;;;14.43;65.07
17072;BME280;7731;50.720;6.912;2023-02-20T11:51:41;100805.25;;;14.71;63.52
17072;BME280;7731;50.720;6.912;2023-02-20T11:54:17;100803.06;;;14.16;64.90
17072;BME280;7731;50.720;6.912;2023-02-20T11:57:04;100788.94;;;13.73;68.06
17072;BME280;7731;50.720;6.912;2023-02-20T11:59:43;100798.88;;;13.97;69.29
17072;BME280;7731;50.720;6.912;2023-02-20T12:02:27;100789.47;;;15.06;62.14
17072;BME280;7731;50.720;6.912;2023-02-20T12:05:09;100796.06;;;13.35;72.33
17072;BME280;7731;50.720;6.912;2023-02-20T12:07:55;100785.31;;;13.60;70.13
17072;BME280;7731;50.720;6.912;2023-02-20T12:10:40;100784.44;;;12.55;77.76
17072;BME280;7731;50.720;6.912;2023-02-20T12:13:14;100774.88;;;13.46;74.15
17072;BME280;7731;50.720;6.912;2023-02-20T12:15:55;100782.88;;;12.69;76.31
17072;BME280;7731;50.720;6.912;2023-02-20T12:18:39;100766.97;;;12.79;77.00
17072;BME280;7731;50.720;6.912;2023-02-20T12:21:38;100764.91;;;12.50;81.76
17072;BME280;7731;50.720;6.912;2023-02-20T12:24:40;100744.97;;;13.24;76.29
17072;BME280;7731;50.720;6.912;2023-02-20T12:30:35;100718.50;;;13.03;82.16
17072;BME280;7731;50.720;6.912;2023-02-20T12:33:46;100715.22;;;14.16;73.39
17072;BME280;7731;50.720;6.912;2023-02-20T12:36:39;100717.28;;;13.77;73.87
17072;BME280;7731;50.720;6.912;2023-02-20T12:39:22;100727.38;;;13.82;75.34
17072;BME280;7731;50.720;6.912;2023-02-20T12:42:23;100741.97;;;12.98;77.55
17072;BME280;7731;50.720;6.912;2023-02-20T12:45:16;100731.63;;;13.33;79.30
17072;BME280;7731;50.720;6.912;2023-02-20T12:48:08;100727.97;;;13.20;77.80
17072;BME280;7731;50.720;6.912;2023-02-20T12:51:01;100715.84;;;13.39;77.17
17072;BME280;7731;50.720;6.912;2023-02-20T12:54:11;100714.72;;;13.61;77.70
17072;BME280;7731;50.720;6.912;2023-02-20T12:57:11;100704.41;;;13.10;78.90
17072;BME280;7731;50.720;6.912;2023-02-20T12:59:55;100700.53;;;13.01;81.74
17072;BME280;7731;50.720;6.912;2023-02-20T13:02:32;100697.56;;;13.09;80.16
17072;BME280;7731;50.720;6.912;2023-02-20T13:05:15;100698.72;;;12.86;82.38
17072;BME280;7731;50.720;6.912;2023-02-20T13:07:52;100687.13;;;12.95;82.91
17072;BME280;7731;50.720;6.912;2023-02-20T13:10:26;100697.22;;;12.99;82.84
17072;BME280;7731;50.720;6.912;2023-02-20T13:12:59;100692.28;;;13.28;79.95
17072;BME280;7731;50.720;6.912;2023-02-20T13:15:42;100692.44;;;12.74;82.19
17072;BME280;7731;50.720;6.912;2023-02-20T13:18:23;100682.03;;;12.76;83.97
17072;BME280;7731;50.720;6.912;2023-02-20T13:21:02;100691.88;;;12.32;85.09
17072;BME280;7731;50.720;6.912;2023-02-20T13:23:38;100684.59;;;12.41;85.91
17072;BME280;7731;50.720;6.912;2023-02-20T13:26:47;100682.31;;;12.35;86.26
17072;BME280;7731;50.720;6.912;2023-02-20T13:29:20;100678.78;;;13.23;83.98
17072;BME280;7731;50.720;6.912;2023-02-20T13:31:56;100688.13;;;12.75;85.38
17072;BME280;7731;50.720;6.912;2023-02-20T13:34:35;100685.63;;;12.73;85.04
17072;BME280;7731;50.720;6.912;2023-02-20T13:37:49;100692.88;;;12.47;87.60
17072;BME280;7731;50.720;6.912;2023-02-20T13:40:41;100686.50;;;12.55;85.74
17072;BME280;7731;50.720;6.912;2023-02-20T13:43:28;100671.75;;;12.58;85.62
17072;BME280;7731;50.720;6.912;2023-02-20T13:46:25;100677.66;;;12.43;86.64
17072;BME280;7731;50.720;6.912;2023-02-20T13:48:57;100666.88;;;12.52;87.45
17072;BME280;7731;50.720;6.912;2023-02-20T13:51:35;100655.66;;;12.71;87.75
17072;BME280;7731;50.720;6.912;2023-02-20T13:54:24;100658.84;;;12.93;86.09
17072;BME280;7731;50.720;6.912;2023-02-20T13:56:59;100656.72;;;12.84;88.23
17072;BME280;7731;50.720;6.912;2023-02-20T13:59:39;100660.50;;;12.77;86.44